Nearby METAR Reports

 

KSJC - San Jose, California, USA
Distance from station: NE 9mi, 14km
Updated: 2022-08-12 13:53
Clear
Clear
 Wind from NNW
Wind: NNW 15 mph , 24 km/h, Gust: 22 mph , 35 km/h
Temperature: 79°F , 26°C
Dew Point: 55°F , 13°C
Humidity: 45%
Barometer: 30.04 inHg , 1017.3 hPa
Clouds: Clear
Visibility: 10 miles , 16 km
2022/08/12 20:53 KSJC 122053Z 33013G19KT 10SM CLR 26/13 A3004 RMK AO2 SLP171 T02560133 56007
KPAO - Palo Alto, California, USA
Distance from station: NNW 14mi, 23km
Updated: 2022-08-12 13:47
Clear
Clear
 Wind from NNW
Wind: NNW 20 mph , 31 km/h
Temperature: 73°F , 23°C
Dew Point: 59°F , 15°C
Humidity: 61%
Barometer: 30.04 inHg , 1017.3 hPa
Clouds: Clear
Visibility: 10 miles , 16 km
2022/08/12 20:47 KPAO 122047Z 34017KT 10SM SKC 23/15 A3004
 
KRHV - San Jose/Reid, California, USA
Distance from station: ENE 12mi, 19km
Updated: 2022-08-12 13:47
Clear
Clear
 Wind from WNW
Wind: WNW 10 mph , 17 km/h
Temperature: 79°F , 26°C
Dew Point: 55°F , 13°C
Humidity: 45%
Barometer: 30.04 inHg , 1017.3 hPa
Clouds: Clear
Visibility: 10 miles , 16 km
2022/08/12 20:47 KRHV 122047Z 30009KT 10SM SKC 26/13 A3004
KOAK - Oakland, California, USA
Distance from station: NNW 31mi, 50km
Updated: 2022-08-12 13:53
Few Clouds
Few Clouds
 Wind from W
Wind: W 15 mph , 24 km/h
Temperature: 72°F , 22°C
Dew Point: 55°F , 13°C
Humidity: 57%
Barometer: 30.06 inHg , 1017.9 hPa
Clouds: Few Clouds
Visibility: 10 miles , 16 km
Cloud details: Few Clouds 1000 ft
2022/08/12 20:53 KOAK 122053Z 26013KT 10SM FEW010 22/13 A3006 RMK AO2 SLP179 T02220133 58005
 
KSQL - San Carlos Airpo, California, USA
Distance from station: NW 21mi, 34km
Updated: 2022-08-12 13:47
Few Clouds
Few Clouds
 Wind from W
Wind: W 15 mph , 24 km/h, Gust: 21 mph , 33 km/h
Temperature: 75°F , 24°C
Dew Point: 54°F , 12°C
Humidity: 47%
Barometer: 30.06 inHg , 1017.9 hPa
Clouds: Few Clouds
Visibility: 10 miles , 16 km
Cloud details: Few Clouds 1600 ft
2022/08/12 20:47 KSQL 122047Z 27013G18KT 10SM FEW016 24/12 A3006
KSFO - San Francisco, California, USA
Distance from station: NW 30mi, 49km
Updated: 2022-08-12 13:56
Few Clouds
Few Clouds
 Wind from W
Wind: W 23 mph , 37 km/h, Gust: 31 mph , 50 km/h
Temperature: 72°F , 22°C
Dew Point: 55°F , 13°C
Humidity: 57%
Barometer: 30.06 inHg , 1017.9 hPa
Clouds: Few Clouds
Visibility: 10 miles , 16 km
Cloud details: Few Clouds 800 ft
2022/08/12 20:56 KSFO 122056Z 28020G27KT 10SM FEW008 22/13 A3006 RMK AO2 PK WND 27027/2052 SLP179 T02170128 56001
 
KE16 - San Martin, California, USA
Distance from station: ESE 27mi, 43km
Updated: 2022-08-12 14:15
Clear
Clear
 Wind from NW
Wind: NW 14 mph , 22 km/h
Temperature: 84°F , 29°C
Dew Point: 50°F , 10°C
Humidity: 31%
Barometer: 30.02 inHg , 1016.6 hPa
Clouds: Clear
Visibility: 10 miles , 16 km
2022/08/12 21:15 KE16 122115Z AUTO 32012KT 10SM CLR 29/10 A3002 RMK AO2 PWINO PNO
KWVI - Watsonville, California, USA
Distance from station: SSE 27mi, 44km
Updated: 2022-08-12 13:53
Clear
Clear
 Wind from S
Wind: S 7 mph , 11 km/h
Temperature: 79°F , 26°C
Dew Point: 55°F , 13°C
Humidity: 45%
Barometer: 30.03 inHg , 1016.9 hPa
Clouds: Clear
Visibility: 10 miles , 16 km
2022/08/12 20:53 KWVI 122053Z AUTO 17006KT 10SM CLR 26/13 A3003 RMK AO2 SLP168 T02610128 58009
 
KHAF - Half Moon Bay, California, USA
Distance from station: WNW 31mi, 50km
Updated: 2022-08-12 14:15
Clear
Clear
 Wind from NNW
Wind: NNW 13 mph , 20 km/h, Gust: 20 mph , 31 km/h
Temperature: 68°F , 20°C
Dew Point: 59°F , 15°C
Humidity: 73%
Barometer: 30.09 inHg , 1019 hPa
Clouds: Clear
Visibility: 8 miles , 13 km
2022/08/12 21:15 KHAF 122115Z AUTO 33011G17KT 8SM CLR 20/15 A3009 RMK AO2
KHWD - Hayward, California, USA
Distance from station: N 28mi, 44km
Updated: 2022-08-12 13:54
Clear
Clear
 Wind from W
Wind: W 14 mph , 22 km/h
Temperature: 72°F , 22°C
Dew Point: 57°F , 14°C
Humidity: 61%
Barometer: 30.05 inHg , 1017.6 hPa
Clouds: Clear
Visibility: 10 miles , 16 km
2022/08/12 20:54 KHWD 122054Z 27012KT 10SM CLR 22/14 A3005 RMK AO2 SLP186 T02170139 58005
 
KLVK - Livermore, California, USA
Distance from station: NNE 31mi, 51km
Updated: 2022-08-12 13:53
Clear
Clear
 Wind from WNW
Wind: WNW 16 mph , 26 km/h
Temperature: 84°F , 29°C
Dew Point: 48°F , 9°C
Humidity: 29%
Barometer: 30.02 inHg , 1016.6 hPa
Clouds: Clear
Visibility: 10 miles , 16 km
2022/08/12 20:53 KLVK 122053Z 29014KT 10SM CLR 29/09 A3002 RMK AO2 SLP161 T02890094 57009 $